KCXO/CXO METAR and TAF weather

Enter ICAO airport designator
Station Type Date Time Source
KCXO METAR 2022/01/25 04:53 UTC NOAA

KCXO 250453Z AUTO 00000KT 10SM OVC017 08/08 A2992 RMK AO2 SLP131 T00830078


Station Type Date Time Source
KCXO Decoded METAR 2022/01/25 04:53 UTC NOAA

LONE STAR EXECUTIVE AIRPORT, TX, United States (KCXO) 30-21N 95-25W 75M
Jan 24, 2022 - 11:53 PM EST / 2022.01.25 0453 UTC
Wind: Calm:0
Visibility: 10 mile(s):0
Sky conditions: overcast
Temperature: 46.9 F (8.3 C)
Dew Point: 46.0 F (7.8 C)
Relative Humidity: 96%
Pressure (altimeter): 29.92 in. Hg (1013 hPa)
ob: KCXO 250453Z AUTO 00000KT 10SM OVC017 08/08 A2992 RMK AO2 SLP131 T00830078
cycle: 5

Station Type Date Time Source
KCXO TAF 2022/01/25 06:24 UTC NOAA

TAF KCXO 250522Z 2506/2606 VRB03KT P6SM FEW005 OVC015
FM250800 VRB04KT 3SM BR OVC009
TEMPO 2509/2512 1SM BR OVC004
FM251600 02006KT P6SM OVC007
FM252100 02007KT P6SM OVC015

Example: see airport list